Time;durP1;ratioP1;P1;durP2;ratioP2;P2;SDS_P1;SDS_P2;PMS_P1;PMS_P2;Temp;Humidity;BMP_temperature;BMP_pressure;BME280_temperature;BME280_humidity;BME280_pressure;Samples;Min_cycle;Max_cycle;Signal;HPM_P1;HPM_P2
2023/07/11 00:00:54;;;;;;;2.97;1.92;;;;;;;17.98;76.50;101708.38;6160469;23;20018;-79
2023/07/11 00:03:21;;;;;;;2.90;1.85;;;;;;;17.94;76.51;101710.53;6133153;23;20544;-80
2023/07/11 00:06:07;;;;;;;4.45;2.20;;;;;;;17.94;75.82;101705.13;6134203;23;20025;-78
2023/07/11 00:08:36;;;;;;;2.22;2.05;;;;;;;17.92;76.44;101711.00;6133538;23;20076;-79
2023/07/11 00:11:06;;;;;;;3.55;2.13;;;;;;;17.88;77.04;101710.44;6133504;23;20025;-79
2023/07/11 00:13:32;;;;;;;5.70;2.50;;;;;;;17.81;77.69;101712.75;6133063;23;20029;-79
2023/07/11 00:16:02;;;;;;;5.22;2.42;;;;;;;17.82;76.65;101703.47;6134278;23;20018;-79
2023/07/11 00:18:29;;;;;;;2.47;2.20;;;;;;;17.81;76.60;101707.38;6158990;23;20085;-80
2023/07/11 00:20:56;;;;;;;4.93;2.08;;;;;;;17.80;76.57;101709.31;6159815;23;20018;-79
2023/07/11 00:23:24;;;;;;;4.47;2.20;;;;;;;17.76;77.78;101706.06;6159551;23;20022;-79
2023/07/11 00:25:51;;;;;;;5.63;2.20;;;;;;;17.75;78.32;101706.53;6172879;23;20017;-79
2023/07/11 00:28:19;;;;;;;4.65;2.38;;;;;;;17.73;77.45;101706.25;6163072;23;20018;-78
2023/07/11 00:30:47;;;;;;;3.45;1.90;;;;;;;17.71;78.44;101701.34;6190495;23;20025;-79
2023/07/11 00:33:14;;;;;;;3.08;2.22;;;;;;;17.69;78.58;101703.75;6162805;23;20029;-79
2023/07/11 00:35:44;;;;;;;1.92;1.80;;;;;;;17.67;78.05;101696.13;6163213;23;20028;-80
2023/07/11 00:38:12;;;;;;;2.22;2.03;;;;;;;17.66;78.53;101696.59;6190217;23;20022;-79
2023/07/11 00:40:44;;;;;;;2.90;1.83;;;;;;;17.64;78.65;101698.97;6163067;23;20018;-80
2023/07/11 00:43:12;;;;;;;;;;;;;;;17.61;77.23;101691.84;6163756;23;20487;-78
2023/07/11 00:46:06;;;;;;;3.83;1.98;;;;;;;17.57;78.48;101700.13;6163287;23;19928;-79
2023/07/11 00:48:37;;;;;;;2.80;2.10;;;;;;;17.51;79.37;101693.91;6163260;23;20049;-79
2023/07/11 00:51:07;;;;;;;2.50;2.30;;;;;;;17.50;79.86;101692.41;6190083;23;20021;-79
2023/07/11 00:53:36;;;;;;;5.32;2.42;;;;;;;17.50;79.23;101689.72;6189673;23;20392;-79
2023/07/11 00:56:07;;;;;;;2.60;2.10;;;;;;;17.50;79.75;101697.81;6162701;23;20022;-79
2023/07/11 00:58:38;;;;;;;6.07;2.55;;;;;;;17.50;79.17;101695.09;6138523;23;20021;-79
2023/07/11 01:01:05;;;;;;;4.50;1.75;;;;;;;17.49;79.80;101693.63;6162939;23;20013;-80
2023/07/11 01:03:32;;;;;;;4.97;1.95;;;;;;;17.48;79.69;101681.38;6162917;23;20455;-79
2023/07/11 01:05:59;;;;;;;1.90;1.80;;;;;;;17.46;80.07;101678.41;6189949;23;20018;-79
2023/07/11 01:08:26;;;;;;;4.30;2.20;;;;;;;17.46;80.94;101689.16;6189194;23;20447;-79
2023/07/11 01:10:52;;;;;;;2.38;2.08;;;;;;;17.41;80.72;101684.44;6163074;23;20076;-79
2023/07/11 01:13:19;;;;;;;4.10;2.00;;;;;;;17.40;80.75;101682.94;6189451;23;20018;-79
2023/07/11 01:15:46;;;;;;;2.88;2.13;;;;;;;17.30;81.33;101681.53;6138381;23;20406;-79
2023/07/11 01:18:13;;;;;;;2.22;2.00;;;;;;;17.24;81.79;101681.44;6138165;23;20017;-79
2023/07/11 01:20:39;;;;;;;2.00;1.90;;;;;;;17.19;81.57;101675.97;6162686;23;20040;-79
2023/07/11 01:23:06;;;;;;;4.22;2.40;;;;;;;17.11;81.35;101672.91;6189527;23;20018;-79
2023/07/11 01:25:33;;;;;;;2.95;2.10;;;;;;;17.08;81.37;101675.78;6188973;23;20025;-79
2023/07/11 01:27:59;;;;;;;3.88;2.17;;;;;;;17.08;81.82;101667.72;6163394;23;20414;-79
2023/07/11 01:30:26;;;;;;;2.67;1.92;;;;;;;17.11;81.54;101670.22;6162131;23;20031;-80
2023/07/11 01:32:52;;;;;;;3.90;2.20;;;;;;;17.09;81.96;101664.56;6162689;23;20421;-79
2023/07/11 01:35:19;;;;;;;4.45;1.83;;;;;;;17.10;82.41;101663.34;6162168;23;20363;-79
2023/07/11 01:37:46;;;;;;;7.68;2.15;;;;;;;17.08;81.87;101667.72;6163131;23;20046;-79
2023/07/11 01:40:13;;;;;;;4.20;2.00;;;;;;;17.06;82.39;101651.28;6162712;23;20091;-79
2023/07/11 01:42:42;;;;;;;3.03;1.98;;;;;;;17.05;82.97;101650.53;6189677;23;20022;-79
2023/07/11 01:45:10;;;;;;;1.95;1.80;;;;;;;17.04;83.30;101638.31;6188783;23;20104;-79
2023/07/11 01:47:37;;;;;;;2.97;1.88;;;;;;;17.03;82.30;101634.13;6162652;23;20414;-79
2023/07/11 01:50:04;;;;;;;2.25;2.10;;;;;;;17.00;82.79;101643.84;6163277;23;20032;-79
2023/07/11 01:52:31;;;;;;;2.90;1.92;;;;;;;16.99;83.29;101636.25;6189328;23;20045;-78
2023/07/11 01:54:57;;;;;;;4.75;1.90;;;;;;;16.98;83.12;101627.44;6163628;23;20017;-78
2023/07/11 01:57:24;;;;;;;4.03;2.30;;;;;;;16.94;83.21;101623.44;6189137;23;20069;-78
2023/07/11 01:59:51;;;;;;;2.35;2.00;;;;;;;16.94;83.02;101623.44;6137810;23;20080;-78
2023/07/11 02:02:18;;;;;;;3.60;2.08;;;;;;;16.90;83.97;101618.25;6162864;23;20037;-79
2023/07/11 02:04:45;;;;;;;3.67;1.83;;;;;;;16.87;83.51;101603.03;6189756;23;20390;-78
2023/07/11 02:07:11;;;;;;;3.40;2.30;;;;;;;16.86;84.02;101606.91;6162430;23;20076;-79
2023/07/11 02:09:40;;;;;;;2.92;2.05;;;;;;;16.83;83.99;101599.78;6188894;23;20018;-79
2023/07/11 02:12:08;;;;;;;2.17;1.92;;;;;;;16.84;84.50;101598.56;6162659;23;20490;-79
2023/07/11 02:14:36;;;;;;;3.83;2.13;;;;;;;16.80;84.26;101589.94;6162347;23;20028;-79
2023/07/11 02:17:03;;;;;;;3.90;1.90;;;;;;;16.76;84.72;101575.22;6138610;23;20100;-78
2023/07/11 02:19:30;;;;;;;4.07;2.55;;;;;;;16.77;85.16;101579.38;6162214;23;20036;-79
2023/07/11 02:21:59;;;;;;;2.30;2.20;;;;;;;16.77;84.98;101579.38;6162516;23;20077;-78
2023/07/11 02:24:25;;;;;;;3.00;1.92;;;;;;;16.74;85.00;101572.25;6162632;23;20017;-79
2023/07/11 02:26:52;;;;;;;3.35;2.25;;;;;;;16.69;85.51;101568.25;6189711;23;20036;-79
2023/07/11 02:29:19;;;;;;;3.08;2.33;;;;;;;16.66;85.61;101569.16;6187735;23;20348;-78
2023/07/11 02:31:45;;;;;;;5.45;2.40;;;;;;;16.62;86.04;101560.50;6189513;23;20021;-79
2023/07/11 02:34:12;;;;;;;8.25;2.45;;;;;;;16.57;86.27;101558.47;6162237;23;20045;-79
2023/07/11 02:36:38;;;;;;;3.92;2.20;;;;;;;16.52;85.91;101556.41;6188857;23;20439;-79
2023/07/11 02:39:05;;;;;;;3.05;2.58;;;;;;;16.53;85.99;101557.91;6162139;23;20478;-81
2023/07/11 02:41:32;;;;;;;2.25;2.05;;;;;;;16.52;86.21;101557.16;6137705;23;20084;-79
2023/07/11 02:43:59;;;;;;;3.83;2.47;;;;;;;16.48;86.82;101553.16;6189093;23;20092;-78
2023/07/11 02:46:25;;;;;;;2.28;2.10;;;;;;;16.45;87.12;101546.00;6138521;23;20093;-79
2023/07/11 02:48:53;;;;;;;3.22;2.30;;;;;;;16.41;87.35;101548.13;6190828;23;20073;-79
2023/07/11 02:51:20;;;;;;;4.07;2.30;;;;;;;16.39;87.11;101537.13;6189923;23;20057;-79
2023/07/11 02:53:46;;;;;;;3.92;2.35;;;;;;;16.40;86.47;101531.28;6190503;23;20021;-79
2023/07/11 02:56:15;;;;;;;2.83;2.17;;;;;;;16.39;87.19;101534.44;6163417;23;20023;-79
2023/07/11 02:58:41;;;;;;;2.35;1.95;;;;;;;16.32;87.46;101532.84;6189228;23;20018;-79
2023/07/11 03:01:08;;;;;;;6.40;2.53;;;;;;;16.27;88.07;101539.59;6189984;23;20084;-79
2023/07/11 03:03:35;;;;;;;3.30;2.30;;;;;;;16.26;87.91;101535.44;6163329;23;20022;-79
2023/07/11 03:06:02;;;;;;;2.58;2.30;;;;;;;16.22;88.06;101529.47;6190136;23;20021;-79
2023/07/11 03:08:28;;;;;;;5.18;2.30;;;;;;;16.19;88.56;101525.03;6189315;23;20014;-79
2023/07/11 03:11:00;;;;;;;2.92;2.45;;;;;;;16.19;88.35;101522.34;6163701;23;20025;-79
2023/07/11 03:13:27;;;;;;;2.13;2.00;;;;;;;16.18;88.37;101515.47;6162770;23;20439;-79
2023/07/11 03:15:54;;;;;;;3.22;2.22;;;;;;;16.17;88.09;101510.56;6164094;23;20021;-79
2023/07/11 03:18:20;;;;;;;2.13;2.03;;;;;;;16.16;88.61;101511.78;6189615;23;20016;-79
2023/07/11 03:20:47;;;;;;;4.78;2.58;;;;;;;16.16;88.67;101514.47;6190297;23;20092;-79
2023/07/11 03:23:15;;;;;;;3.10;2.60;;;;;;;16.13;88.37;101508.06;6189967;23;20459;-79
2023/07/11 03:25:42;;;;;;;3.58;2.22;;;;;;;16.13;88.51;101515.38;6188741;23;20434;-79
2023/07/11 03:28:08;;;;;;;5.22;2.45;;;;;;;16.11;88.78;101507.03;6190013;23;20018;-79
2023/07/11 03:30:36;;;;;;;4.00;2.55;;;;;;;16.09;88.60;101504.06;6189991;23;20477;-79
2023/07/11 03:33:03;;;;;;;3.13;2.38;;;;;;;16.06;88.80;101500.34;6189751;23;20396;-79
2023/07/11 03:35:30;;;;;;;2.60;2.40;;;;;;;16.00;89.52;101496.81;6189981;23;20038;-79
2023/07/11 03:37:57;;;;;;;2.33;2.20;;;;;;;16.01;89.05;101492.91;6163541;23;20017;-78
2023/07/11 03:40:24;;;;;;;4.07;2.63;;;;;;;16.03;88.60;101487.84;6188605;23;20093;-79
2023/07/11 03:42:51;;;;;;;4.22;2.10;;;;;;;16.04;89.53;101491.25;6189689;23;20021;-79
2023/07/11 03:45:18;;;;;;;2.25;2.10;;;;;;;16.03;89.03;101490.50;6189775;23;20080;-79
2023/07/11 03:47:44;;;;;;;2.90;2.65;;;;;;;15.99;89.52;101485.31;6190072;23;20014;-78
2023/07/11 03:50:11;;;;;;;3.05;2.25;;;;;;;15.99;89.29;101488.00;6189641;23;20025;-79
2023/07/11 03:52:38;;;;;;;2.70;2.40;;;;;;;15.98;89.66;101478.50;6190081;23;20017;-78
2023/07/11 03:55:05;;;;;;;4.45;2.33;;;;;;;15.97;89.35;101482.38;6189101;23;20415;-79
2023/07/11 03:57:31;;;;;;;2.67;2.40;;;;;;;15.96;89.28;101482.84;6189656;23;20440;-78
2023/07/11 03:59:58;;;;;;;3.28;2.25;;;;;;;15.97;89.21;101482.38;6163758;23;20467;-79
2023/07/11 04:02:25;;;;;;;3.58;2.67;;;;;;;15.98;88.99;101477.75;6189252;23;20018;-79
2023/07/11 04:04:51;;;;;;;2.55;2.35;;;;;;;15.99;89.56;101477.25;6138850;23;20017;-79
2023/07/11 04:07:18;;;;;;;2.50;2.30;;;;;;;16.01;89.54;101484.88;6163229;23;20017;-79
2023/07/11 04:09:45;;;;;;;4.00;2.30;;;;;;;16.05;89.58;101479.31;6189748;23;20060;-79
2023/07/11 04:12:11;;;;;;;6.25;2.55;;;;;;;16.06;89.33;101481.53;6162805;23;20018;-79
2023/07/11 04:14:38;;;;;;;3.22;2.40;;;;;;;16.06;88.88;101478.84;6189891;23;20335;-78
2023/07/11 04:17:05;;;;;;;3.78;2.67;;;;;;;16.01;89.73;101477.53;6138837;23;20213;-78
2023/07/11 04:19:31;;;;;;;3.00;2.45;;;;;;;16.05;89.90;101472.00;6189662;23;20121;-78
2023/07/11 04:21:58;;;;;;;3.00;2.20;;;;;;;16.05;89.06;101463.94;6163250;23;20431;-78
2023/07/11 04:24:24;;;;;;;2.72;2.53;;;;;;;16.10;89.25;101466.00;6189058;23;20020;-79
2023/07/11 04:26:51;;;;;;;2.45;2.25;;;;;;;16.15;89.05;101460.00;6189414;23;20054;-79
2023/07/11 04:29:18;;;;;;;6.38;2.53;;;;;;;16.19;89.10;101451.75;6189395;23;20429;-78
2023/07/11 04:31:44;;;;;;;2.75;2.40;;;;;;;16.23;89.30;101449.63;6190174;23;20045;-78
2023/07/11 04:34:11;;;;;;;3.60;2.50;;;;;;;16.27;89.19;101448.25;6190130;23;20038;-78
2023/07/11 04:36:38;;;;;;;2.72;2.53;;;;;;;16.28;89.20;101447.06;6189384;23;20024;-78
2023/07/11 04:39:04;;;;;;;4.63;2.80;;;;;;;16.33;89.69;101443.72;6162798;23;20018;-78
2023/07/11 04:41:31;;;;;;;3.83;2.83;;;;;;;16.37;90.03;101440.13;6189670;23;20013;-78
2023/07/11 04:43:57;;;;;;;3.55;3.13;;;;;;;16.42;89.69;101442.13;6163314;23;20113;-79
2023/07/11 04:46:25;;;;;;;4.95;3.45;;;;;;;16.46;89.50;101429.25;6162481;23;20511;-79
2023/07/11 04:48:52;;;;;;;5.57;4.10;;;;;;;16.50;89.88;101435.19;6189504;23;20021;-78
2023/07/11 04:51:18;;;;;;;4.88;4.43;;;;;;;16.54;89.79;101435.75;6189138;23;20021;-78
2023/07/11 04:53:45;;;;;;;8.35;4.78;;;;;;;16.67;89.18;101431.63;6189231;23;20014;-79
2023/07/11 04:56:12;;;;;;;10.95;5.18;;;;;;;17.60;85.99;101434.59;6189399;23;20021;-79
2023/07/11 04:58:39;;;;;;;5.78;4.85;;;;;;;17.91;83.44;101418.59;6189675;23;20080;-79
2023/07/11 05:01:08;;;;;;;5.85;5.15;;;;;;;17.76;83.07;101420.63;6189711;23;20014;-79
2023/07/11 05:03:35;;;;;;;15.13;6.75;;;;;;;17.79;83.43;101417.00;6163728;23;20089;-79
2023/07/11 05:06:03;;;;;;;11.15;7.03;;;;;;;18.67;81.03;101412.94;6189705;23;20069;-78
2023/07/11 05:08:31;;;;;;;13.43;7.30;;;;;;;19.95;75.23;101421.66;6187937;23;20503;-79
2023/07/11 05:11:03;;;;;;;11.98;7.43;;;;;;;21.04;69.55;101421.91;6162908;23;20026;-79
2023/07/11 05:13:31;;;;;;;9.35;7.50;;;;;;;21.40;67.87;101420.84;6189527;23;20018;-79
2023/07/11 05:16:03;;;;;;;16.00;7.63;;;;;;;21.63;66.89;101408.66;6190175;23;20422;-79
2023/07/11 05:18:30;;;;;;;12.07;8.27;;;;;;;21.68;66.58;101406.44;6189570;23;20727;-78
2023/07/11 05:20:58;;;;;;;13.32;8.55;;;;;;;23.24;61.76;101405.13;6190129;23;20044;-79
2023/07/11 05:23:29;;;;;;;11.10;8.65;;;;;;;23.80;59.22;101410.63;6188193;23;20017;-79
2023/07/11 05:25:56;;;;;;;12.87;8.73;;;;;;;24.02;57.06;101398.66;6189763;23;20013;-79
2023/07/11 05:28:26;;;;;;;15.55;8.75;;;;;;;22.71;60.40;101393.84;6162313;23;20229;-79
2023/07/11 05:30:54;;;;;;;14.95;8.27;;;;;;;23.40;59.40;101400.75;6189474;23;20024;-79
2023/07/11 05:33:21;;;;;;;14.00;8.35;;;;;;;24.85;54.84;101398.53;6188801;23;20044;-79
2023/07/11 05:35:59;;;;;;;11.35;8.57;;;;;;;25.17;54.10;101403.91;6163273;23;20455;-79
2023/07/11 05:38:26;;;;;;;11.52;8.13;;;;;;;24.93;54.35;101396.66;6163088;23;20352;-79
2023/07/11 05:40:52;;;;;;;9.43;8.45;;;;;;;25.32;53.11;101395.88;6162958;23;20025;-79
2023/07/11 05:43:19;;;;;;;15.98;7.75;;;;;;;25.14;53.51;101389.34;6162131;23;20515;-80
2023/07/11 05:45:45;;;;;;;13.02;7.55;;;;;;;25.73;52.17;101394.53;6189983;23;20017;-79
2023/07/11 05:48:12;;;;;;;8.93;8.02;;;;;;;25.97;51.32;101382.59;6164321;23;20060;-79
2023/07/11 05:50:39;;;;;;;9.13;8.23;;;;;;;25.61;51.79;101374.94;6190006;23;20024;-78
2023/07/11 05:53:05;;;;;;;9.40;8.18;;;;;;;25.65;51.98;101380.81;6189440;23;20018;-78
2023/07/11 05:55:32;;;;;;;11.05;8.00;;;;;;;25.69;52.15;101375.78;6188460;23;20013;-80
2023/07/11 05:57:58;;;;;;;8.55;7.85;;;;;;;25.66;52.58;101373.38;6189188;23;20046;-80
2023/07/11 06:00:25;;;;;;;10.70;7.90;;;;;;;25.63;52.37;101374.41;6188646;23;20414;-80
2023/07/11 06:02:51;;;;;;;15.68;8.43;;;;;;;25.40;53.32;101371.47;6189906;23;20479;-80
2023/07/11 06:05:18;;;;;;;9.15;8.20;;;;;;;25.11;54.11;101367.84;6189308;23;20150;-80
2023/07/11 06:07:47;;;;;;;9.48;7.93;;;;;;;24.92;55.27;101362.50;6190300;23;20779;-80
2023/07/11 06:10:13;;;;;;;11.55;8.18;;;;;;;24.95;55.76;101358.72;6190711;23;20022;-80
2023/07/11 06:12:40;;;;;;;8.25;7.55;;;;;;;24.52;56.49;101365.22;6190287;23;20020;-80
2023/07/11 06:15:07;;;;;;;8.90;8.10;;;;;;;24.22;56.56;101359.28;6190178;23;20018;-80
2023/07/11 06:17:33;;;;;;;11.13;7.78;;;;;;;24.18;58.32;101361.59;6191123;23;20009;-83
2023/07/11 06:20:00;;;;;;;8.88;7.30;;;;;;;24.19;57.84;101352.91;6192284;23;20475;-78
2023/07/11 06:22:27;;;;;;;8.15;7.35;;;;;;;23.99;58.72;101350.06;6190616;23;20018;-78
2023/07/11 06:24:53;;;;;;;13.50;7.57;;;;;;;23.94;58.26;101349.63;6190142;23;20482;-77
2023/07/11 06:27:20;;;;;;;7.78;6.90;;;;;;;23.98;58.58;101354.03;6190289;23;20025;-81
2023/07/11 06:29:46;;;;;;;10.68;7.45;;;;;;;24.11;58.17;101352.06;6163500;23;20025;-79
2023/07/11 06:32:13;;;;;;;13.20;6.55;;;;;;;24.05;58.44;101347.94;6164844;23;20013;-79
2023/07/11 06:34:40;;;;;;;8.15;5.88;;;;;;;24.10;57.31;101352.56;6190831;23;20439;-81
2023/07/11 06:37:06;;;;;;;7.20;5.78;;;;;;;24.03;56.22;101353.91;6164478;23;20026;-77
2023/07/11 06:39:33;;;;;;;111.90;14.05;;;;;;;24.02;55.93;101344.28;6163476;23;20398;-81
2023/07/11 06:42:00;;;;;;;61.47;11.23;;;;;;;23.99;56.83;101347.31;6190326;23;20436;-78
2023/07/11 06:44:26;;;;;;;5.20;4.70;;;;;;;24.02;56.26;101344.28;6190020;23;20024;-76
2023/07/11 06:46:53;;;;;;;8.02;4.68;;;;;;;24.01;56.65;101342.81;6164160;23;20022;-78
2023/07/11 06:49:19;;;;;;;9.98;4.57;;;;;;;23.99;55.42;101337.19;6189805;23;20013;-77
2023/07/11 06:51:48;;;;;;;6.10;4.57;;;;;;;23.97;56.53;101341.69;6190688;23;20052;-79
2023/07/11 06:54:15;;;;;;;4.72;4.00;;;;;;;24.03;56.21;101336.84;6191113;23;20024;-79
2023/07/11 06:56:41;;;;;;;5.20;4.20;;;;;;;24.10;55.88;101333.53;6191752;23;20045;-82
2023/07/11 06:59:08;;;;;;;4.60;4.00;;;;;;;24.11;56.47;101335.72;6191438;23;20014;-82
2023/07/11 07:01:35;;;;;;;6.55;4.30;;;;;;;24.21;55.88;101333.34;6195060;23;20348;-81
2023/07/11 07:04:04;;;;;;;6.47;3.97;;;;;;;24.25;56.26;101331.81;6190402;23;20097;-82
2023/07/11 07:06:32;;;;;;;11.35;4.28;;;;;;;24.47;56.51;101332.66;6189536;23;20093;-81
2023/07/11 07:09:00;;;;;;;3.75;3.38;;;;;;;24.54;56.55;101326.59;6190276;23;20037;-82
2023/07/11 07:11:27;;;;;;;22.02;4.10;;;;;;;24.61;55.74;101325.97;6189599;23;20021;-82
2023/07/11 07:13:53;;;;;;;9.07;3.83;;;;;;;24.71;55.54;101329.75;6190072;23;20325;-81
2023/07/11 07:16:32;;;;;;;6.53;3.70;;;;;;;24.77;55.36;101330.38;6190012;23;20022;-82
2023/07/11 07:19:00;;;;;;;8.02;3.80;;;;;;;24.83;55.39;101324.81;6163101;23;20020;-82
2023/07/11 07:21:26;;;;;;;8.57;3.83;;;;;;;24.96;54.86;101324.81;6189493;23;20441;-77
2023/07/11 07:23:53;;;;;;;6.50;3.40;;;;;;;25.04;54.12;101328.38;6189761;23;20013;-78
2023/07/11 07:26:20;;;;;;;5.25;3.20;;;;;;;25.22;53.71;101324.03;6157487;23;20520;-78
2023/07/11 07:28:46;;;;;;;10.35;3.45;;;;;;;25.31;52.65;101318.13;6159657;23;20025;-78
2023/07/11 07:31:14;;;;;;;9.23;4.07;;;;;;;25.42;53.43;101322.59;6160477;23;20049;-80
2023/07/11 07:33:41;;;;;;;6.50;3.30;;;;;;;25.43;52.66;101315.91;6160213;23;20476;-79
2023/07/11 07:36:11;;;;;;;10.02;3.53;;;;;;;25.59;52.62;101315.50;6161584;23;20025;-78
2023/07/11 07:38:39;;;;;;;3.20;3.00;;;;;;;25.74;52.75;101314.94;6158881;23;20022;-80
2023/07/11 07:41:09;;;;;;;4.10;2.97;;;;;;;25.98;51.41;101313.16;6161172;23;20017;-76
2023/07/11 07:43:39;;;;;;;4.78;3.08;;;;;;;26.13;50.66;101308.53;6158719;23;20401;-80
2023/07/11 07:46:06;;;;;;;5.35;3.17;;;;;;;26.20;50.92;101309.84;6160895;23;20046;-77
2023/07/11 07:48:34;;;;;;;6.85;2.80;;;;;;;26.22;49.83;101310.03;6160817;23;20351;-78
2023/07/11 07:51:06;;;;;;;6.03;2.70;;;;;;;26.40;50.08;101311.06;6161222;23;20041;-78
2023/07/11 07:53:33;;;;;;;3.45;2.85;;;;;;;26.57;49.08;101303.16;6160540;23;20018;-77
2023/07/11 07:56:06;;;;;;;4.38;2.78;;;;;;;26.80;48.93;101303.25;6160952;23;20030;-75
2023/07/11 07:58:33;;;;;;;7.65;2.28;;;;;;;26.90;47.63;101299.47;6161014;23;20022;-77
2023/07/11 08:01:08;;;;;;;4.22;2.75;;;;;;;27.01;47.82;101305.94;6160818;23;20049;-77
2023/07/11 08:03:36;;;;;;;4.10;2.50;;;;;;;27.19;46.87;101302.16;6160761;23;20097;-80
2023/07/11 08:06:03;;;;;;;6.63;2.58;;;;;;;27.21;46.49;101302.31;6162323;23;20069;-77
2023/07/11 08:08:46;;;;;;;3.83;2.90;;;;;;;27.37;46.00;101294.91;6161190;23;20527;-77
2023/07/11 08:11:14;;;;;;;3.45;2.63;;;;;;;27.60;45.78;101294.94;6161083;23;20022;-77
2023/07/11 08:13:42;;;;;;;5.47;2.40;;;;;;;27.69;45.61;101288.94;6160428;23;20482;-77
2023/07/11 08:16:12;;;;;;;13.00;2.78;;;;;;;27.84;46.28;101297.88;6161218;23;20121;-78
2023/07/11 08:18:57;;;;;;;2.72;2.08;;;;;;;27.90;46.25;101294.97;6160006;23;20460;-77
2023/07/11 08:21:24;;;;;;;12.32;4.68;;;;;;;28.15;45.19;101293.09;6160728;23;20382;-76
2023/07/11 08:23:50;;;;;;;3.10;2.45;;;;;;;28.05;45.66;101297.66;6132253;23;20108;-78
2023/07/11 08:26:17;;;;;;;5.20;2.40;;;;;;;28.26;45.31;101286.53;6160018;23;20085;-79
2023/07/11 08:28:44;;;;;;;8.13;2.60;;;;;;;28.39;42.99;101299.28;6160790;23;20049;-78
2023/07/11 08:31:10;;;;;;;3.90;2.30;;;;;;;28.44;43.59;101287.38;6160414;23;20029;-79
2023/07/11 08:33:37;;;;;;;4.85;2.30;;;;;;;28.67;42.77;101290.78;6160450;23;20038;-78
2023/07/11 08:36:04;;;;;;;7.13;2.53;;;;;;;28.52;43.51;101296.31;6134292;23;20032;-79
2023/07/11 08:38:31;;;;;;;5.07;2.30;;;;;;;28.63;42.99;101287.69;6134643;23;20023;-79
2023/07/11 08:41:08;;;;;;;2.83;2.00;;;;;;;28.70;42.57;101286.22;6110013;23;20028;-78
2023/07/11 08:43:35;;;;;;;3.65;2.47;;;;;;;28.82;43.22;101284.53;6161004;23;20014;-81
2023/07/11 08:46:07;;;;;;;8.38;2.55;;;;;;;29.01;42.87;101284.81;6133970;23;20018;-79
2023/07/11 08:48:47;;;;;;;3.83;2.25;;;;;;;29.27;42.47;101278.06;6134356;23;20416;-81
2023/07/11 08:51:27;;;;;;;2.08;1.90;;;;;;;29.44;42.17;101283.63;6134796;23;20022;-79
2023/07/11 08:54:02;;;;;;;10.60;2.47;;;;;;;29.44;41.68;101278.16;6160524;23;20444;-79
2023/07/11 08:56:36;;;;;;;2.47;2.28;;;;;;;29.45;41.11;101274.13;6160367;23;20021;-80
2023/07/11 08:59:14;;;;;;;5.35;2.10;;;;;;;29.44;41.91;101275.41;6160094;23;20013;-80
2023/07/11 09:02:01;;;;;;;3.20;2.33;;;;;;;29.45;40.92;101276.88;6160258;23;20021;-78
2023/07/11 09:04:30;;;;;;;5.68;2.30;;;;;;;29.30;40.43;101262.50;6160421;23;20077;-79
2023/07/11 09:07:04;;;;;;;3.80;2.20;;;;;;;29.41;41.48;101271.06;6160674;23;20449;-79
2023/07/11 09:09:32;;;;;;;8.10;2.30;;;;;;;29.44;41.15;101267.19;6160398;23;20050;-79
2023/07/11 09:12:29;;;;;;;3.13;2.42;;;;;;;29.56;41.48;101275.69;6160826;23;20389;-80
2023/07/11 09:14:58;;;;;;;4.20;2.20;;;;;;;29.57;41.44;101265.44;6159957;23;20022;-80
2023/07/11 09:17:43;;;;;;;4.90;2.67;;;;;;;29.65;41.38;101266.09;6133991;23;20468;-80
2023/07/11 09:20:42;;;;;;;11.48;2.88;;;;;;;29.82;41.11;101264.13;6135017;23;20451;-82
2023/07/11 09:23:20;;;;;;;6.68;2.38;;;;;;;29.95;41.07;101262.38;6161897;23;20022;-78
2023/07/11 09:26:12;;;;;;;7.07;2.38;;;;;;;30.14;40.94;101251.56;6160874;23;20436;-78
2023/07/11 09:28:40;;;;;;;4.65;2.53;;;;;;;30.07;39.63;101261.34;6133266;23;20034;-78
2023/07/11 09:31:13;;;;;;;6.72;2.40;;;;;;;30.23;41.01;101247.44;6160643;23;20018;-79
2023/07/11 09:33:49;;;;;;;3.17;2.60;;;;;;;30.22;38.98;101257.69;6160006;23;20468;-79
2023/07/11 09:36:24;;;;;;;2.47;2.25;;;;;;;30.06;40.07;101253.66;6160903;23;20077;-80
2023/07/11 09:39:10;;;;;;;7.35;2.25;;;;;;;30.18;41.77;101251.88;6160979;23;20038;-80
2023/07/11 09:41:47;;;;;;;7.68;3.00;;;;;;;30.47;40.70;101252.81;6134298;23;20045;-80
2023/07/11 09:44:16;;;;;;;6.47;2.42;;;;;;;30.59;38.99;101244.09;6159974;23;20073;-79
2023/07/11 09:46:43;;;;;;;10.48;3.03;;;;;;;30.38;39.85;101250.03;6160484;23;20082;-82
2023/07/11 09:49:19;;;;;;;7.65;2.65;;;;;;;30.53;38.41;101250.56;6160756;23;20022;-79
2023/07/11 09:51:51;;;;;;;5.50;2.83;;;;;;;30.06;37.81;101248.91;6134673;23;20464;-76
2023/07/11 09:54:25;;;;;;;4.30;2.35;;;;;;;29.75;40.22;101253.22;6159919;23;20436;-74
2023/07/11 09:56:51;;;;;;;3.13;2.70;;;;;;;29.94;38.64;101245.16;6160017;23;20486;-75
2023/07/11 09:59:20;;;;;;;3.80;2.60;;;;;;;30.14;38.31;101243.34;6160342;23;20025;-75
2023/07/11 10:01:51;;;;;;;7.03;2.53;;;;;;;30.24;39.27;101235.19;6160737;23;20018;-75
2023/07/11 10:04:22;;;;;;;5.60;2.33;;;;;;;30.45;38.54;101235.47;6160372;23;20025;-75
2023/07/11 10:06:58;;;;;;;2.97;2.60;;;;;;;30.71;38.50;101234.78;6160248;23;20021;-75
2023/07/11 10:09:33;;;;;;;3.78;2.70;;;;;;;30.65;38.31;101231.56;6133196;23;20022;-76
2023/07/11 10:12:12;;;;;;;8.02;2.67;;;;;;;30.90;39.01;101227.94;6133529;23;20018;-78
2023/07/11 10:14:41;;;;;;;4.65;2.58;;;;;;;31.02;38.17;101228.84;6160089;23;20021;-77
2023/07/11 10:17:31;;;;;;;5.80;2.58;;;;;;;31.23;37.81;101229.09;6160325;23;20018;-77
2023/07/11 10:20:01;;;;;;;6.13;2.75;;;;;;;31.00;37.31;101229.44;6160522;23;20435;-79
2023/07/11 10:22:43;;;;;;;2.80;2.30;;;;;;;30.90;39.24;101211.44;6159910;23;20021;-78
2023/07/11 10:25:21;;;;;;;6.13;2.67;;;;;;;31.01;37.56;101213.66;6160552;23;20014;-78
2023/07/11 10:27:53;;;;;;;3.00;2.30;;;;;;;31.05;37.68;101216.72;6177622;23;20523;-77
2023/07/11 10:30:25;;;;;;;3.63;2.38;;;;;;;31.25;39.16;101223.03;6163886;23;20090;-78
2023/07/11 10:33:18;;;;;;;3.72;2.50;;;;;;;31.58;39.24;101213.13;6190366;23;20021;-75
2023/07/11 10:36:02;;;;;;;6.78;2.35;;;;;;;31.44;37.88;101223.09;6190040;23;20423;-76
2023/07/11 10:38:51;;;;;;;4.88;2.50;;;;;;;31.26;38.06;101214.19;6189721;23;20017;-76
2023/07/11 10:41:29;;;;;;;5.40;2.42;;;;;;;31.02;37.88;101209.63;6162982;23;20021;-76
2023/07/11 10:43:55;;;;;;;7.28;2.60;;;;;;;30.57;38.32;101214.47;6190489;23;20024;-75
2023/07/11 10:46:41;;;;;;;7.18;2.60;;;;;;;30.32;39.37;101208.34;6189507;23;20017;-75
2023/07/11 10:49:15;;;;;;;5.05;3.50;;;;;;;30.59;38.74;101200.88;6189779;23;20013;-75
2023/07/11 10:51:52;;;;;;;8.13;2.75;;;;;;;30.72;38.59;101213.53;6189482;23;20100;-75
2023/07/11 10:54:53;;;;;;;5.57;2.38;;;;;;;30.93;39.52;101202.78;6189478;23;20018;-76
2023/07/11 10:57:40;;;;;;;5.50;2.85;;;;;;;30.96;38.08;101200.91;6189609;23;20081;-76
2023/07/11 11:00:27;;;;;;;6.20;2.53;;;;;;;31.04;39.37;101196.75;6189787;23;20017;-76
2023/07/11 11:03:14;;;;;;;4.43;2.70;;;;;;;31.25;38.17;101201.75;6163774;23;20444;-76
2023/07/11 11:06:05;;;;;;;2.78;2.50;;;;;;;30.85;38.42;101196.66;6189770;23;20025;-76
2023/07/11 11:08:57;;;;;;;4.38;2.55;;;;;;;31.01;39.79;101189.66;6190801;23;20445;-77
2023/07/11 11:11:47;;;;;;;3.42;2.42;;;;;;;31.01;39.05;101189.66;6189992;23;20028;-76
2023/07/11 11:14:20;;;;;;;6.13;2.72;;;;;;;31.16;38.07;101191.47;6164711;23;20021;-75
2023/07/11 11:16:59;;;;;;;10.82;2.70;;;;;;;31.17;37.80;101195.66;6191044;23;20455;-76
2023/07/11 11:19:45;;;;;;;5.35;2.55;;;;;;;31.37;37.56;101197.16;6164626;23;20014;-76
2023/07/11 11:22:24;;;;;;;5.13;2.60;;;;;;;31.36;37.71;101192.22;6191078;23;20396;-76
2023/07/11 11:25:00;;;;;;;4.03;2.90;;;;;;;31.20;37.81;101188.28;6164276;23;20021;-76
2023/07/11 11:27:33;;;;;;;13.00;2.78;;;;;;;31.37;37.90;101186.16;6189527;23;20024;-76
2023/07/11 11:30:19;;;;;;;3.80;2.88;;;;;;;31.19;38.09;101184.81;6191139;23;20017;-76
2023/07/11 11:33:13;;;;;;;7.25;2.97;;;;;;;30.86;38.58;101176.13;6190716;23;20383;-77
2023/07/11 11:35:59;;;;;;;3.38;2.55;;;;;;;30.55;39.47;101180.59;6164905;23;20056;-77
2023/07/11 11:38:51;;;;;;;7.03;3.33;;;;;;;30.83;40.11;101185.50;6189651;23;20041;-78